sensor_id;sensor_type;location;lat;lon;timestamp;temperature;humidity
23283;DHT22;11810;51.178;3.878;2022-10-18T00:00:55;15.70;99.90
23283;DHT22;11810;51.178;3.878;2022-10-18T00:03:22;15.70;99.90
23283;DHT22;11810;51.178;3.878;2022-10-18T00:05:48;15.70;99.90
23283;DHT22;11810;51.178;3.878;2022-10-18T00:08:15;15.70;99.90
23283;DHT22;11810;51.178;3.878;2022-10-18T00:10:41;15.70;99.90
23283;DHT22;11810;51.178;3.878;2022-10-18T00:13:07;15.70;99.90
23283;DHT22;11810;51.178;3.878;2022-10-18T00:15:33;15.80;99.90
23283;DHT22;11810;51.178;3.878;2022-10-18T00:17:59;15.80;99.90
23283;DHT22;11810;51.178;3.878;2022-10-18T00:20:25;15.80;99.90
23283;DHT22;11810;51.178;3.878;2022-10-18T00:22:51;15.70;99.90
23283;DHT22;11810;51.178;3.878;2022-10-18T00:25:17;15.70;99.90
23283;DHT22;11810;51.178;3.878;2022-10-18T00:27:43;15.70;99.90
23283;DHT22;11810;51.178;3.878;2022-10-18T00:30:09;15.70;99.90
23283;DHT22;11810;51.178;3.878;2022-10-18T00:32:40;15.80;99.90
23283;DHT22;11810;51.178;3.878;2022-10-18T00:35:07;15.80;99.90
23283;DHT22;11810;51.178;3.878;2022-10-18T00:37:34;15.70;99.90
23283;DHT22;11810;51.178;3.878;2022-10-18T00:40:00;15.80;99.90
23283;DHT22;11810;51.178;3.878;2022-10-18T00:42:33;15.80;99.90
23283;DHT22;11810;51.178;3.878;2022-10-18T00:45:14;15.80;99.90
23283;DHT22;11810;51.178;3.878;2022-10-18T00:47:40;15.80;99.90
23283;DHT22;11810;51.178;3.878;2022-10-18T00:50:08;15.80;99.90
23283;DHT22;11810;51.178;3.878;2022-10-18T00:52:38;15.80;99.90
23283;DHT22;11810;51.178;3.878;2022-10-18T00:55:05;15.80;99.90
23283;DHT22;11810;51.178;3.878;2022-10-18T00:57:32;15.70;99.90
23283;DHT22;11810;51.178;3.878;2022-10-18T00:59:58;15.70;99.90
23283;DHT22;11810;51.178;3.878;2022-10-18T01:02:25;15.70;99.90
23283;DHT22;11810;51.178;3.878;2022-10-18T01:04:51;15.80;99.90
23283;DHT22;11810;51.178;3.878;2022-10-18T01:10:18;15.70;99.90
23283;DHT22;11810;51.178;3.878;2022-10-18T01:15:30;15.70;99.90
23283;DHT22;11810;51.178;3.878;2022-10-18T01:23:19;15.80;99.90
23283;DHT22;11810;51.178;3.878;2022-10-18T01:31:03;15.70;99.90
23283;DHT22;11810;51.178;3.878;2022-10-18T01:36:26;15.70;99.90
23283;DHT22;11810;51.178;3.878;2022-10-18T01:38:56;15.70;99.90
23283;DHT22;11810;51.178;3.878;2022-10-18T01:41:24;15.80;99.90
23283;DHT22;11810;51.178;3.878;2022-10-18T01:43:53;15.80;99.90
23283;DHT22;11810;51.178;3.878;2022-10-18T01:46:23;15.80;99.90
23283;DHT22;11810;51.178;3.878;2022-10-18T01:48:51;15.90;99.90
23283;DHT22;11810;51.178;3.878;2022-10-18T01:51:28;15.90;99.90
23283;DHT22;11810;51.178;3.878;2022-10-18T01:53:55;16.00;99.90
23283;DHT22;11810;51.178;3.878;2022-10-18T01:56:26;16.00;99.90
23283;DHT22;11810;51.178;3.878;2022-10-18T01:59:18;16.10;99.90
23283;DHT22;11810;51.178;3.878;2022-10-18T02:07:41;16.00;99.90
23283;DHT22;11810;51.178;3.878;2022-10-18T02:10:28;16.10;99.90
23283;DHT22;11810;51.178;3.878;2022-10-18T02:12:56;16.10;99.90
23283;DHT22;11810;51.178;3.878;2022-10-18T02:15:32;16.10;99.90
23283;DHT22;11810;51.178;3.878;2022-10-18T02:18:01;16.10;99.90
23283;DHT22;11810;51.178;3.878;2022-10-18T02:20:28;16.00;99.90
23283;DHT22;11810;51.178;3.878;2022-10-18T02:22:58;16.00;99.90
23283;DHT22;11810;51.178;3.878;2022-10-18T02:25:28;16.00;99.90
23283;DHT22;11810;51.178;3.878;2022-10-18T02:27:56;16.00;99.90
23283;DHT22;11810;51.178;3.878;2022-10-18T02:30:26;15.90;99.90
23283;DHT22;11810;51.178;3.878;2022-10-18T02:32:58;15.90;99.90
23283;DHT22;11810;51.178;3.878;2022-10-18T02:35:31;15.90;99.90
23283;DHT22;11810;51.178;3.878;2022-10-18T02:38:02;16.00;99.90
23283;DHT22;11810;51.178;3.878;2022-10-18T02:40:29;15.90;99.90
23283;DHT22;11810;51.178;3.878;2022-10-18T02:42:56;15.90;99.90
23283;DHT22;11810;51.178;3.878;2022-10-18T02:45:23;15.90;99.90
23283;DHT22;11810;51.178;3.878;2022-10-18T02:47:50;15.90;99.90
23283;DHT22;11810;51.178;3.878;2022-10-18T02:50:16;15.90;99.90
23283;DHT22;11810;51.178;3.878;2022-10-18T02:52:42;16.00;99.90
23283;DHT22;11810;51.178;3.878;2022-10-18T02:55:09;16.00;99.90
23283;DHT22;11810;51.178;3.878;2022-10-18T02:57:35;15.90;99.90
23283;DHT22;11810;51.178;3.878;2022-10-18T03:00:03;15.90;99.90
23283;DHT22;11810;51.178;3.878;2022-10-18T03:02:30;15.80;99.90
23283;DHT22;11810;51.178;3.878;2022-10-18T03:04:56;15.70;99.90
23283;DHT22;11810;51.178;3.878;2022-10-18T03:07:21;15.70;99.90
23283;DHT22;11810;51.178;3.878;2022-10-18T03:09:48;15.70;99.90
23283;DHT22;11810;51.178;3.878;2022-10-18T03:12:14;15.80;99.90
23283;DHT22;11810;51.178;3.878;2022-10-18T03:14:40;15.80;99.90
23283;DHT22;11810;51.178;3.878;2022-10-18T03:17:05;15.80;99.90
23283;DHT22;11810;51.178;3.878;2022-10-18T03:19:31;15.80;99.90
23283;DHT22;11810;51.178;3.878;2022-10-18T03:21:57;15.70;99.90
23283;DHT22;11810;51.178;3.878;2022-10-18T03:24:23;15.70;99.90
23283;DHT22;11810;51.178;3.878;2022-10-18T03:26:49;15.70;99.90
23283;DHT22;11810;51.178;3.878;2022-10-18T03:29:15;15.70;99.90
23283;DHT22;11810;51.178;3.878;2022-10-18T03:31:41;15.80;99.90
23283;DHT22;11810;51.178;3.878;2022-10-18T03:34:07;15.70;99.90
23283;DHT22;11810;51.178;3.878;2022-10-18T03:36:33;15.70;99.90
23283;DHT22;11810;51.178;3.878;2022-10-18T03:38:59;15.70;99.90
23283;DHT22;11810;51.178;3.878;2022-10-18T03:41:26;15.70;99.90
23283;DHT22;11810;51.178;3.878;2022-10-18T03:43:52;15.60;99.90
23283;DHT22;11810;51.178;3.878;2022-10-18T03:46:18;15.60;99.90
23283;DHT22;11810;51.178;3.878;2022-10-18T03:48:44;15.60;99.90
23283;DHT22;11810;51.178;3.878;2022-10-18T03:51:10;15.60;99.90
23283;DHT22;11810;51.178;3.878;2022-10-18T03:53:35;15.70;99.90
23283;DHT22;11810;51.178;3.878;2022-10-18T03:56:01;15.70;99.90
23283;DHT22;11810;51.178;3.878;2022-10-18T03:58:27;15.70;99.90
23283;DHT22;11810;51.178;3.878;2022-10-18T04:00:53;15.80;99.90
23283;DHT22;11810;51.178;3.878;2022-10-18T04:03:21;15.80;99.90
23283;DHT22;11810;51.178;3.878;2022-10-18T04:05:48;15.80;99.90
23283;DHT22;11810;51.178;3.878;2022-10-18T04:08:14;15.70;99.90
23283;DHT22;11810;51.178;3.878;2022-10-18T04:10:41;15.70;99.90
23283;DHT22;11810;51.178;3.878;2022-10-18T04:13:07;15.80;99.90
23283;DHT22;11810;51.178;3.878;2022-10-18T04:15:33;15.70;99.90
23283;DHT22;11810;51.178;3.878;2022-10-18T04:18:00;15.70;99.90
23283;DHT22;11810;51.178;3.878;2022-10-18T04:20:26;15.60;99.90
23283;DHT22;11810;51.178;3.878;2022-10-18T04:22:53;15.50;99.90
23283;DHT22;11810;51.178;3.878;2022-10-18T04:25:22;15.40;99.90
23283;DHT22;11810;51.178;3.878;2022-10-18T04:27:48;15.30;99.90
23283;DHT22;11810;51.178;3.878;2022-10-18T04:30:14;15.10;99.90
23283;DHT22;11810;51.178;3.878;2022-10-18T04:32:40;14.90;99.90
23283;DHT22;11810;51.178;3.878;2022-10-18T04:35:07;14.80;99.90
23283;DHT22;11810;51.178;3.878;2022-10-18T04:37:33;14.70;99.90
23283;DHT22;11810;51.178;3.878;2022-10-18T04:39:59;14.60;99.90
23283;DHT22;11810;51.178;3.878;2022-10-18T04:42:25;14.60;99.90
23283;DHT22;11810;51.178;3.878;2022-10-18T04:44:51;14.50;99.90
23283;DHT22;11810;51.178;3.878;2022-10-18T04:47:17;14.40;99.90
23283;DHT22;11810;51.178;3.878;2022-10-18T04:49:43;14.30;99.90
23283;DHT22;11810;51.178;3.878;2022-10-18T04:52:10;14.20;99.90
23283;DHT22;11810;51.178;3.878;2022-10-18T04:54:36;14.20;99.90
23283;DHT22;11810;51.178;3.878;2022-10-18T04:57:02;14.10;99.90
23283;DHT22;11810;51.178;3.878;2022-10-18T04:59:28;14.00;99.90
23283;DHT22;11810;51.178;3.878;2022-10-18T05:01:54;13.90;99.90
23283;DHT22;11810;51.178;3.878;2022-10-18T05:04:20;13.80;99.90
23283;DHT22;11810;51.178;3.878;2022-10-18T05:06:46;13.60;99.90
23283;DHT22;11810;51.178;3.878;2022-10-18T05:09:12;13.50;99.90
23283;DHT22;11810;51.178;3.878;2022-10-18T05:11:38;13.50;99.90
23283;DHT22;11810;51.178;3.878;2022-10-18T05:14:04;13.50;99.90
23283;DHT22;11810;51.178;3.878;2022-10-18T05:16:30;13.50;99.90
23283;DHT22;11810;51.178;3.878;2022-10-18T05:18:57;13.40;99.90
23283;DHT22;11810;51.178;3.878;2022-10-18T05:21:22;13.40;99.90
23283;DHT22;11810;51.178;3.878;2022-10-18T05:23:48;13.40;99.90
23283;DHT22;11810;51.178;3.878;2022-10-18T05:26:14;13.30;99.90
23283;DHT22;11810;51.178;3.878;2022-10-18T05:28:40;13.10;99.90
23283;DHT22;11810;51.178;3.878;2022-10-18T05:31:08;12.80;99.90
23283;DHT22;11810;51.178;3.878;2022-10-18T05:33:34;12.90;99.90
23283;DHT22;11810;51.178;3.878;2022-10-18T05:36:00;12.80;99.90
23283;DHT22;11810;51.178;3.878;2022-10-18T05:38:26;12.80;99.90
23283;DHT22;11810;51.178;3.878;2022-10-18T05:40:52;12.80;99.90
23283;DHT22;11810;51.178;3.878;2022-10-18T05:43:18;12.80;99.90
23283;DHT22;11810;51.178;3.878;2022-10-18T05:45:50;12.80;99.90
23283;DHT22;11810;51.178;3.878;2022-10-18T05:48:16;12.80;99.90
23283;DHT22;11810;51.178;3.878;2022-10-18T05:50:42;12.70;99.90
23283;DHT22;11810;51.178;3.878;2022-10-18T05:53:08;12.70;99.90
23283;DHT22;11810;51.178;3.878;2022-10-18T05:55:34;12.70;99.90
23283;DHT22;11810;51.178;3.878;2022-10-18T05:58:00;12.80;99.90
23283;DHT22;11810;51.178;3.878;2022-10-18T06:00:27;12.70;99.90
23283;DHT22;11810;51.178;3.878;2022-10-18T06:02:53;12.60;99.90
23283;DHT22;11810;51.178;3.878;2022-10-18T06:05:19;12.60;99.90
23283;DHT22;11810;51.178;3.878;2022-10-18T06:07:45;12.60;99.90
23283;DHT22;11810;51.178;3.878;2022-10-18T06:10:11;12.50;99.90
23283;DHT22;11810;51.178;3.878;2022-10-18T06:12:37;12.60;99.90
23283;DHT22;11810;51.178;3.878;2022-10-18T06:15:03;12.60;99.90
23283;DHT22;11810;51.178;3.878;2022-10-18T06:17:29;12.60;99.90
23283;DHT22;11810;51.178;3.878;2022-10-18T06:19:56;12.70;99.90
23283;DHT22;11810;51.178;3.878;2022-10-18T06:22:22;12.70;99.90
23283;DHT22;11810;51.178;3.878;2022-10-18T06:24:47;12.70;99.90
23283;DHT22;11810;51.178;3.878;2022-10-18T06:27:13;12.70;99.90
23283;DHT22;11810;51.178;3.878;2022-10-18T06:29:39;12.60;99.90
23283;DHT22;11810;51.178;3.878;2022-10-18T06:32:07;12.60;99.90
23283;DHT22;11810;51.178;3.878;2022-10-18T06:34:33;12.60;99.90
23283;DHT22;11810;51.178;3.878;2022-10-18T06:36:59;12.60;99.90
23283;DHT22;11810;51.178;3.878;2022-10-18T06:39:25;12.60;99.90
23283;DHT22;11810;51.178;3.878;2022-10-18T06:41:51;12.50;99.90
23283;DHT22;11810;51.178;3.878;2022-10-18T06:44:18;12.50;99.90
23283;DHT22;11810;51.178;3.878;2022-10-18T06:46:45;12.50;99.90
23283;DHT22;11810;51.178;3.878;2022-10-18T06:49:12;12.40;99.90
23283;DHT22;11810;51.178;3.878;2022-10-18T06:51:40;12.40;99.90
23283;DHT22;11810;51.178;3.878;2022-10-18T06:54:06;12.40;99.90
23283;DHT22;11810;51.178;3.878;2022-10-18T06:56:33;12.30;99.90
23283;DHT22;11810;51.178;3.878;2022-10-18T06:58:59;12.30;99.90
23283;DHT22;11810;51.178;3.878;2022-10-18T07:01:25;12.30;99.90
23283;DHT22;11810;51.178;3.878;2022-10-18T07:03:53;12.20;99.90
23283;DHT22;11810;51.178;3.878;2022-10-18T07:06:20;12.30;99.90
23283;DHT22;11810;51.178;3.878;2022-10-18T07:08:48;12.30;99.90
23283;DHT22;11810;51.178;3.878;2022-10-18T07:11:18;12.40;99.90
23283;DHT22;11810;51.178;3.878;2022-10-18T07:13:44;12.60;99.90
23283;DHT22;11810;51.178;3.878;2022-10-18T07:16:12;12.90;99.90
23283;DHT22;11810;51.178;3.878;2022-10-18T07:18:41;13.20;99.90
23283;DHT22;11810;51.178;3.878;2022-10-18T07:21:12;13.30;99.90
23283;DHT22;11810;51.178;3.878;2022-10-18T07:23:40;13.50;99.90
23283;DHT22;11810;51.178;3.878;2022-10-18T07:26:25;13.80;99.90
23283;DHT22;11810;51.178;3.878;2022-10-18T07:28:54;14.20;99.90
23283;DHT22;11810;51.178;3.878;2022-10-18T07:31:21;14.50;99.90
23283;DHT22;11810;51.178;3.878;2022-10-18T07:33:47;15.30;99.90
23283;DHT22;11810;51.178;3.878;2022-10-18T07:36:13;16.40;99.90
23283;DHT22;11810;51.178;3.878;2022-10-18T07:38:40;17.30;99.90
23283;DHT22;11810;51.178;3.878;2022-10-18T07:41:07;18.00;99.90
23283;DHT22;11810;51.178;3.878;2022-10-18T07:43:33;18.40;99.90
23283;DHT22;11810;51.178;3.878;2022-10-18T07:46:02;18.20;99.90
23283;DHT22;11810;51.178;3.878;2022-10-18T07:48:28;18.20;99.90
23283;DHT22;11810;51.178;3.878;2022-10-18T07:50:58;18.10;99.90
23283;DHT22;11810;51.178;3.878;2022-10-18T07:53:24;18.30;99.90
23283;DHT22;11810;51.178;3.878;2022-10-18T07:55:51;18.50;99.90
23283;DHT22;11810;51.178;3.878;2022-10-18T07:58:17;18.80;99.90
23283;DHT22;11810;51.178;3.878;2022-10-18T08:00:43;18.80;99.90
23283;DHT22;11810;51.178;3.878;2022-10-18T08:03:08;19.40;99.90
23283;DHT22;11810;51.178;3.878;2022-10-18T08:05:34;20.00;99.90
23283;DHT22;11810;51.178;3.878;2022-10-18T08:08:00;20.00;99.90
23283;DHT22;11810;51.178;3.878;2022-10-18T08:10:26;19.90;99.90
23283;DHT22;11810;51.178;3.878;2022-10-18T08:12:52;19.70;99.90
23283;DHT22;11810;51.178;3.878;2022-10-18T08:15:19;19.80;99.90
23283;DHT22;11810;51.178;3.878;2022-10-18T08:17:48;19.90;99.90
23283;DHT22;11810;51.178;3.878;2022-10-18T08:20:14;20.20;99.90
23283;DHT22;11810;51.178;3.878;2022-10-18T08:22:40;20.40;99.90
23283;DHT22;11810;51.178;3.878;2022-10-18T08:25:06;21.00;99.90
23283;DHT22;11810;51.178;3.878;2022-10-18T08:27:32;21.20;99.90
23283;DHT22;11810;51.178;3.878;2022-10-18T08:29:58;21.60;99.90
23283;DHT22;11810;51.178;3.878;2022-10-18T08:32:26;21.00;99.90
23283;DHT22;11810;51.178;3.878;2022-10-18T08:34:53;20.80;99.90
23283;DHT22;11810;51.178;3.878;2022-10-18T08:37:19;21.10;99.90
23283;DHT22;11810;51.178;3.878;2022-10-18T08:39:45;21.00;99.90
23283;DHT22;11810;51.178;3.878;2022-10-18T08:45:04;22.00;99.90
23283;DHT22;11810;51.178;3.878;2022-10-18T08:47:35;23.30;99.90
23283;DHT22;11810;51.178;3.878;2022-10-18T08:50:15;24.10;99.90
23283;DHT22;11810;51.178;3.878;2022-10-18T08:52:55;23.70;99.90
23283;DHT22;11810;51.178;3.878;2022-10-18T08:55:49;24.20;99.90
23283;DHT22;11810;51.178;3.878;2022-10-18T08:58:25;24.50;99.90
23283;DHT22;11810;51.178;3.878;2022-10-18T09:03:32;25.40;99.90
23283;DHT22;11810;51.178;3.878;2022-10-18T09:17:26;26.70;99.90
23283;DHT22;11810;51.178;3.878;2022-10-18T09:22:54;27.70;99.90
23283;DHT22;11810;51.178;3.878;2022-10-18T09:36:28;26.10;99.90
23283;DHT22;11810;51.178;3.878;2022-10-18T09:39:14;26.80;99.90
23283;DHT22;11810;51.178;3.878;2022-10-18T09:41:46;27.00;99.90
23283;DHT22;11810;51.178;3.878;2022-10-18T09:44:46;26.90;99.90
23283;DHT22;11810;51.178;3.878;2022-10-18T09:47:21;27.20;99.90
23283;DHT22;11810;51.178;3.878;2022-10-18T09:50:01;26.90;99.90
23283;DHT22;11810;51.178;3.878;2022-10-18T09:52:38;27.60;99.90
23283;DHT22;11810;51.178;3.878;2022-10-18T09:55:17;27.50;99.90
23283;DHT22;11810;51.178;3.878;2022-10-18T09:57:49;28.00;99.90
23283;DHT22;11810;51.178;3.878;2022-10-18T10:00:25;27.70;99.90
23283;DHT22;11810;51.178;3.878;2022-10-18T10:02:52;26.50;99.90
23283;DHT22;11810;51.178;3.878;2022-10-18T10:05:19;25.60;99.90
23283;DHT22;11810;51.178;3.878;2022-10-18T10:07:46;25.10;99.90
23283;DHT22;11810;51.178;3.878;2022-10-18T10:10:19;25.00;99.90
23283;DHT22;11810;51.178;3.878;2022-10-18T10:12:46;25.10;99.90
23283;DHT22;11810;51.178;3.878;2022-10-18T10:15:25;24.80;99.90
23283;DHT22;11810;51.178;3.878;2022-10-18T10:18:04;25.20;99.90
23283;DHT22;11810;51.178;3.878;2022-10-18T10:23:15;26.70;99.90
23283;DHT22;11810;51.178;3.878;2022-10-18T10:25:50;27.90;99.90
23283;DHT22;11810;51.178;3.878;2022-10-18T10:28:27;28.90;99.90
23283;DHT22;11810;51.178;3.878;2022-10-18T10:30:53;29.80;99.90
23283;DHT22;11810;51.178;3.878;2022-10-18T10:33:32;30.20;99.90
23283;DHT22;11810;51.178;3.878;2022-10-18T10:36:00;30.10;99.90
23283;DHT22;11810;51.178;3.878;2022-10-18T10:38:28;29.30;99.90
23283;DHT22;11810;51.178;3.878;2022-10-18T10:40:55;29.70;99.90
23283;DHT22;11810;51.178;3.878;2022-10-18T10:43:22;29.90;99.90
23283;DHT22;11810;51.178;3.878;2022-10-18T10:46:06;29.80;99.90
23283;DHT22;11810;51.178;3.878;2022-10-18T10:48:59;30.30;99.90
23283;DHT22;11810;51.178;3.878;2022-10-18T10:51:28;30.40;99.90
23283;DHT22;11810;51.178;3.878;2022-10-18T10:59:45;30.90;99.90
23283;DHT22;11810;51.178;3.878;2022-10-18T11:04:43;31.50;99.90
23283;DHT22;11810;51.178;3.878;2022-10-18T11:09:57;30.80;99.90
23283;DHT22;11810;51.178;3.878;2022-10-18T11:17:59;26.70;99.90
23283;DHT22;11810;51.178;3.878;2022-10-18T11:20:33;28.00;99.90
23283;DHT22;11810;51.178;3.878;2022-10-18T11:23:20;29.00;99.90
23283;DHT22;11810;51.178;3.878;2022-10-18T11:36:33;30.10;99.90
23283;DHT22;11810;51.178;3.878;2022-10-18T11:47:17;31.00;99.90
23283;DHT22;11810;51.178;3.878;2022-10-18T11:55:13;29.20;99.90
23283;DHT22;11810;51.178;3.878;2022-10-18T11:57:55;27.70;99.90
23283;DHT22;11810;51.178;3.878;2022-10-18T12:00:36;27.00;99.90
23283;DHT22;11810;51.178;3.878;2022-10-18T12:06:03;27.70;99.90
23283;DHT22;11810;51.178;3.878;2022-10-18T12:08:53;28.00;99.90
23283;DHT22;11810;51.178;3.878;2022-10-18T12:11:23;28.20;99.90
23283;DHT22;11810;51.178;3.878;2022-10-18T12:13:58;28.10;99.90
23283;DHT22;11810;51.178;3.878;2022-10-18T12:16:28;28.60;99.90
23283;DHT22;11810;51.178;3.878;2022-10-18T12:18:59;27.80;99.90
23283;DHT22;11810;51.178;3.878;2022-10-18T12:21:29;28.40;99.90
23283;DHT22;11810;51.178;3.878;2022-10-18T12:24:05;28.60;99.90
23283;DHT22;11810;51.178;3.878;2022-10-18T12:26:34;28.60;99.90
23283;DHT22;11810;51.178;3.878;2022-10-18T12:31:51;29.20;99.90
23283;DHT22;11810;51.178;3.878;2022-10-18T12:37:25;29.10;99.90
23283;DHT22;11810;51.178;3.878;2022-10-18T12:40:00;29.20;99.90
23283;DHT22;11810;51.178;3.878;2022-10-18T12:42:29;28.50;99.90
23283;DHT22;11810;51.178;3.878;2022-10-18T12:47:39;28.20;99.90
23283;DHT22;11810;51.178;3.878;2022-10-18T12:50:29;28.30;99.90
23283;DHT22;11810;51.178;3.878;2022-10-18T12:53:14;28.20;99.90
23283;DHT22;11810;51.178;3.878;2022-10-18T12:55:43;27.80;99.90
23283;DHT22;11810;51.178;3.878;2022-10-18T12:58:30;27.00;99.90
23283;DHT22;11810;51.178;3.878;2022-10-18T13:01:02;25.70;99.90
23283;DHT22;11810;51.178;3.878;2022-10-18T13:03:55;24.50;99.90
23283;DHT22;11810;51.178;3.878;2022-10-18T13:06:22;23.60;99.90
23283;DHT22;11810;51.178;3.878;2022-10-18T13:09:14;22.90;99.90
23283;DHT22;11810;51.178;3.878;2022-10-18T13:11:40;22.50;99.90
23283;DHT22;11810;51.178;3.878;2022-10-18T13:14:18;22.00;99.90
23283;DHT22;11810;51.178;3.878;2022-10-18T13:19:43;21.60;99.90
23283;DHT22;11810;51.178;3.878;2022-10-18T13:28:23;20.80;99.90
23283;DHT22;11810;51.178;3.878;2022-10-18T13:30:32;20.70;99.90
23283;DHT22;11810;51.178;3.878;2022-10-18T13:36:04;20.60;99.90
23283;DHT22;11810;51.178;3.878;2022-10-18T14:11:21;19.80;99.90
23283;DHT22;11810;51.178;3.878;2022-10-18T14:13:56;19.50;99.90
23283;DHT22;11810;51.178;3.878;2022-10-18T14:19:53;19.50;99.90
23283;DHT22;11810;51.178;3.878;2022-10-18T14:22:27;19.50;99.90
23283;DHT22;11810;51.178;3.878;2022-10-18T14:24:57;19.50;99.90
23283;DHT22;11810;51.178;3.878;2022-10-18T14:27:25;19.40;99.90
23283;DHT22;11810;51.178;3.878;2022-10-18T14:30:24;19.50;99.90
23283;DHT22;11810;51.178;3.878;2022-10-18T14:32:51;19.70;99.90
23283;DHT22;11810;51.178;3.878;2022-10-18T14:35:25;19.90;99.90
23283;DHT22;11810;51.178;3.878;2022-10-18T14:37:53;20.20;99.90
23283;DHT22;11810;51.178;3.878;2022-10-18T14:40:39;20.20;99.90
23283;DHT22;11810;51.178;3.878;2022-10-18T14:43:09;20.00;99.90
23283;DHT22;11810;51.178;3.878;2022-10-18T14:45:36;19.80;99.90
23283;DHT22;11810;51.178;3.878;2022-10-18T14:50:42;19.70;99.90
23283;DHT22;11810;51.178;3.878;2022-10-18T14:53:16;19.70;99.90
23283;DHT22;11810;51.178;3.878;2022-10-18T14:55:52;19.70;99.90
23283;DHT22;11810;51.178;3.878;2022-10-18T14:58:19;19.60;99.90
23283;DHT22;11810;51.178;3.878;2022-10-18T15:00:46;19.30;99.90
23283;DHT22;11810;51.178;3.878;2022-10-18T15:03:14;19.40;99.90
23283;DHT22;11810;51.178;3.878;2022-10-18T15:08:19;19.90;99.90
23283;DHT22;11810;51.178;3.878;2022-10-18T15:10:45;19.90;99.90
23283;DHT22;11810;51.178;3.878;2022-10-18T15:13:12;19.80;99.90
23283;DHT22;11810;51.178;3.878;2022-10-18T15:15:39;19.80;99.90
23283;DHT22;11810;51.178;3.878;2022-10-18T15:18:06;19.40;99.90
23283;DHT22;11810;51.178;3.878;2022-10-18T15:20:34;19.30;99.90
23283;DHT22;11810;51.178;3.878;2022-10-18T15:23:23;19.20;99.90
23283;DHT22;11810;51.178;3.878;2022-10-18T15:25:51;19.20;99.90
23283;DHT22;11810;51.178;3.878;2022-10-18T15:28:35;19.20;99.90
23283;DHT22;11810;51.178;3.878;2022-10-18T15:31:02;19.10;99.90
23283;DHT22;11810;51.178;3.878;2022-10-18T15:33:30;19.00;99.90
23283;DHT22;11810;51.178;3.878;2022-10-18T15:36:10;18.90;99.90
23283;DHT22;11810;51.178;3.878;2022-10-18T15:38:36;18.80;99.90
23283;DHT22;11810;51.178;3.878;2022-10-18T15:44:30;18.50;99.90
23283;DHT22;11810;51.178;3.878;2022-10-18T15:47:28;18.30;99.90
23283;DHT22;11810;51.178;3.878;2022-10-18T15:49:57;18.30;99.90
23283;DHT22;11810;51.178;3.878;2022-10-18T15:52:27;18.00;99.90
23283;DHT22;11810;51.178;3.878;2022-10-18T15:54:53;17.90;99.90
23283;DHT22;11810;51.178;3.878;2022-10-18T15:57:19;17.90;99.90
23283;DHT22;11810;51.178;3.878;2022-10-18T15:59:56;17.80;99.90
23283;DHT22;11810;51.178;3.878;2022-10-18T16:02:23;17.70;99.90
23283;DHT22;11810;51.178;3.878;2022-10-18T16:04:49;17.60;99.90
23283;DHT22;11810;51.178;3.878;2022-10-18T16:07:15;17.60;99.90
23283;DHT22;11810;51.178;3.878;2022-10-18T16:09:41;17.60;99.90
23283;DHT22;11810;51.178;3.878;2022-10-18T16:12:07;17.40;99.90
23283;DHT22;11810;51.178;3.878;2022-10-18T16:14:33;17.30;99.90
23283;DHT22;11810;51.178;3.878;2022-10-18T16:17:02;17.20;99.90
23283;DHT22;11810;51.178;3.878;2022-10-18T16:19:28;16.90;99.90
23283;DHT22;11810;51.178;3.878;2022-10-18T16:21:55;17.00;99.90
23283;DHT22;11810;51.178;3.878;2022-10-18T16:24:21;16.90;99.90
23283;DHT22;11810;51.178;3.878;2022-10-18T16:26:47;16.80;99.90
23283;DHT22;11810;51.178;3.878;2022-10-18T16:29:16;16.60;99.90
23283;DHT22;11810;51.178;3.878;2022-10-18T16:31:44;16.50;99.90
23283;DHT22;11810;51.178;3.878;2022-10-18T16:34:11;16.40;99.90
23283;DHT22;11810;51.178;3.878;2022-10-18T16:36:40;16.30;99.90
23283;DHT22;11810;51.178;3.878;2022-10-18T16:39:09;16.30;99.90
23283;DHT22;11810;51.178;3.878;2022-10-18T16:41:37;16.20;99.90
23283;DHT22;11810;51.178;3.878;2022-10-18T16:44:03;16.00;99.90
23283;DHT22;11810;51.178;3.878;2022-10-18T16:46:31;16.00;99.90
23283;DHT22;11810;51.178;3.878;2022-10-18T16:48:57;15.90;99.90
23283;DHT22;11810;51.178;3.878;2022-10-18T16:51:24;15.80;99.90
23283;DHT22;11810;51.178;3.878;2022-10-18T16:53:50;15.60;99.90
23283;DHT22;11810;51.178;3.878;2022-10-18T16:56:21;15.50;99.90
23283;DHT22;11810;51.178;3.878;2022-10-18T16:58:47;15.60;99.90
23283;DHT22;11810;51.178;3.878;2022-10-18T17:01:16;15.60;99.90
23283;DHT22;11810;51.178;3.878;2022-10-18T17:03:43;15.40;99.90
23283;DHT22;11810;51.178;3.878;2022-10-18T17:06:20;15.20;99.90
23283;DHT22;11810;51.178;3.878;2022-10-18T17:08:47;15.10;99.90
23283;DHT22;11810;51.178;3.878;2022-10-18T17:11:14;15.10;99.90
23283;DHT22;11810;51.178;3.878;2022-10-18T17:13:40;15.00;99.90
23283;DHT22;11810;51.178;3.878;2022-10-18T17:16:23;14.80;99.90
23283;DHT22;11810;51.178;3.878;2022-10-18T17:18:50;14.60;99.90
23283;DHT22;11810;51.178;3.878;2022-10-18T17:21:16;14.60;99.90
23283;DHT22;11810;51.178;3.878;2022-10-18T17:23:42;14.50;99.90
23283;DHT22;11810;51.178;3.878;2022-10-18T17:26:15;14.50;99.90
23283;DHT22;11810;51.178;3.878;2022-10-18T17:28:41;14.30;99.90
23283;DHT22;11810;51.178;3.878;2022-10-18T17:31:07;14.30;99.90
23283;DHT22;11810;51.178;3.878;2022-10-18T17:33:33;14.20;99.90
23283;DHT22;11810;51.178;3.878;2022-10-18T17:35:59;14.20;99.90
23283;DHT22;11810;51.178;3.878;2022-10-18T17:38:24;14.10;99.90
23283;DHT22;11810;51.178;3.878;2022-10-18T17:40:50;14.00;99.90
23283;DHT22;11810;51.178;3.878;2022-10-18T17:43:18;14.00;99.90
23283;DHT22;11810;51.178;3.878;2022-10-18T17:45:54;13.90;99.90
23283;DHT22;11810;51.178;3.878;2022-10-18T17:48:21;13.70;99.90
23283;DHT22;11810;51.178;3.878;2022-10-18T17:50:47;13.60;99.90
23283;DHT22;11810;51.178;3.878;2022-10-18T17:53:13;13.60;99.90
23283;DHT22;11810;51.178;3.878;2022-10-18T17:55:40;13.60;99.90
23283;DHT22;11810;51.178;3.878;2022-10-18T17:58:06;13.50;99.90
23283;DHT22;11810;51.178;3.878;2022-10-18T18:00:32;13.40;99.90
23283;DHT22;11810;51.178;3.878;2022-10-18T18:02:59;13.40;99.90
23283;DHT22;11810;51.178;3.878;2022-10-18T18:05:32;13.30;99.90
23283;DHT22;11810;51.178;3.878;2022-10-18T18:07:59;13.30;99.90
23283;DHT22;11810;51.178;3.878;2022-10-18T18:10:25;13.30;99.90
23283;DHT22;11810;51.178;3.878;2022-10-18T18:12:51;13.20;99.90
23283;DHT22;11810;51.178;3.878;2022-10-18T18:15:17;13.10;99.90
23283;DHT22;11810;51.178;3.878;2022-10-18T18:17:42;13.00;99.90
23283;DHT22;11810;51.178;3.878;2022-10-18T18:20:09;12.90;99.90
23283;DHT22;11810;51.178;3.878;2022-10-18T18:22:34;12.80;99.90
23283;DHT22;11810;51.178;3.878;2022-10-18T18:25:02;12.80;99.90
23283;DHT22;11810;51.178;3.878;2022-10-18T18:27:28;12.80;99.90
23283;DHT22;11810;51.178;3.878;2022-10-18T18:29:54;12.70;99.90